Time;durP1;ratioP1;P1;durP2;ratioP2;P2;SDS_P1;SDS_P2;PMS_P1;PMS_P2;Temp;Humidity;BMP_temperature;BMP_pressure;BME280_temperature;BME280_humidity;BME280_pressure;Samples;Min_cycle;Max_cycle;Signal;HPM_P1;HPM_P2
2023/01/13 00:02:00;;;;;;;1.05;0.55;;;11.60;88.80;;;;;;5091362;28;20964;-73
2023/01/13 00:04:26;;;;;;;1.13;0.60;;;11.60;89.20;;;;;;5072355;28;20427;-73
2023/01/13 00:06:51;;;;;;;1.43;0.60;;;11.60;88.80;;;;;;5091411;28;20450;-73
2023/01/13 00:09:17;;;;;;;1.90;0.60;;;11.70;87.10;;;;;;5074593;28;20905;-74
2023/01/13 00:11:42;;;;;;;1.20;0.50;;;11.70;87.30;;;;;;5074686;28;20386;-73
2023/01/13 00:14:08;;;;;;;0.90;0.50;;;11.70;86.60;;;;;;5090070;28;20396;-73
2023/01/13 00:16:33;;;;;;;1.27;0.60;;;11.80;86.30;;;;;;5091119;28;20382;-73
2023/01/13 00:18:59;;;;;;;2.27;0.43;;;11.80;86.00;;;;;;5091070;28;20382;-73
2023/01/13 00:21:25;;;;;;;1.20;0.50;;;11.80;86.20;;;;;;5091063;28;20748;-73
2023/01/13 00:23:52;;;;;;;1.25;0.50;;;11.70;86.40;;;;;;5089650;28;20382;-73
2023/01/13 00:26:21;;;;;;;1.38;0.52;;;11.70;86.50;;;;;;5090427;28;20413;-73
2023/01/13 00:28:47;;;;;;;2.00;0.90;;;11.70;86.60;;;;;;5072660;28;20799;-73
2023/01/13 00:31:19;;;;;;;1.90;0.50;;;11.70;86.30;;;;;;5090900;28;20902;-73
2023/01/13 00:33:47;;;;;;;1.20;0.70;;;11.70;86.10;;;;;;5089999;28;20382;-73
2023/01/13 00:36:15;;;;;;;1.58;0.80;;;11.70;85.30;;;;;;5090404;28;20884;-73
2023/01/13 00:38:42;;;;;;;1.08;0.50;;;11.80;86.10;;;;;;5090497;28;20915;-73
2023/01/13 00:41:19;;;;;;;1.70;0.60;;;11.80;85.10;;;;;;5090991;28;20377;-74
2023/01/13 00:43:45;;;;;;;2.30;0.80;;;11.70;85.70;;;;;;5071834;28;20384;-73
2023/01/13 00:46:13;;;;;;;2.30;0.80;;;11.70;85.80;;;;;;5090617;28;20435;-73
2023/01/13 00:48:38;;;;;;;1.77;0.60;;;11.70;86.00;;;;;;5090041;28;20561;-73
2023/01/13 00:51:08;;;;;;;2.50;0.60;;;11.70;85.50;;;;;;5090090;28;20952;-73
2023/01/13 00:53:37;;;;;;;2.10;0.80;;;11.70;85.90;;;;;;5089806;28;20803;-73
2023/01/13 00:56:05;;;;;;;0.63;0.45;;;11.70;85.90;;;;;;5090408;28;20378;-73
2023/01/13 00:58:32;;;;;;;1.50;0.60;;;11.70;86.30;;;;;;5090386;28;20386;-73
2023/01/13 01:01:06;;;;;;;1.73;0.70;;;11.60;86.90;;;;;;5072285;28;20386;-72
2023/01/13 01:03:32;;;;;;;1.98;0.60;;;11.60;87.20;;;;;;5089707;28;20386;-73
2023/01/13 01:06:04;;;;;;;1.15;0.80;;;11.60;87.50;;;;;;5090289;28;20382;-73
2023/01/13 01:08:30;;;;;;;2.50;0.73;;;11.60;87.60;;;;;;5080379;28;20415;-74
2023/01/13 01:11:08;;;;;;;2.65;0.70;;;11.60;88.00;;;;;;5052103;28;20384;-73
2023/01/13 01:13:34;;;;;;;1.65;0.80;;;11.60;89.10;;;;;;5059776;28;20972;-73
2023/01/13 01:16:09;;;;;;;1.98;0.60;;;11.60;89.80;;;;;;5089945;28;20396;-72
2023/01/13 01:18:37;;;;;;;0.95;0.43;;;11.60;90.50;;;;;;5090422;28;20374;-72
2023/01/13 01:21:04;;;;;;;2.40;0.70;;;11.60;90.70;;;;;;5090244;28;20417;-72
2023/01/13 01:23:31;;;;;;;1.45;0.77;;;11.60;91.40;;;;;;5089334;28;20409;-73
2023/01/13 01:26:01;;;;;;;1.75;0.80;;;11.60;91.90;;;;;;5089936;28;20382;-73
2023/01/13 01:28:26;;;;;;;1.35;0.70;;;11.60;91.90;;;;;;5090083;28;20402;-73
2023/01/13 01:30:54;;;;;;;3.53;1.07;;;11.60;91.50;;;;;;5090091;28;20380;-73
2023/01/13 01:33:20;;;;;;;1.92;0.80;;;11.60;91.70;;;;;;5089178;28;20385;-73
2023/01/13 01:35:45;;;;;;;3.70;0.98;;;11.50;91.90;;;;;;5089966;28;20375;-73
2023/01/13 01:38:11;;;;;;;1.08;0.65;;;11.60;91.60;;;;;;5127712;22;20438;-72
2023/01/13 01:40:36;;;;;;;1.40;0.70;;;11.50;91.80;;;;;;5110166;28;20377;-74
2023/01/13 01:45:52;;;;;;;2.80;0.80;;;11.60;91.90;;;;;;5110161;28;20383;-74
2023/01/13 01:48:17;;;;;;;2.97;0.90;;;11.60;92.30;;;;;;5110211;28;20388;-72
2023/01/13 01:50:43;;;;;;;1.93;0.90;;;11.50;92.80;;;;;;5110259;28;20896;-73
2023/01/13 01:53:15;;;;;;;0.73;0.60;;;11.50;93.30;;;;;;5109485;28;20376;-72
2023/01/13 01:55:41;;;;;;;1.77;0.60;;;11.50;93.20;;;;;;5101667;28;20393;-72
2023/01/13 01:58:16;;;;;;;2.60;0.70;;;11.40;93.50;;;;;;5090209;28;20752;-73
2023/01/13 02:00:42;;;;;;;1.40;0.70;;;11.40;93.80;;;;;;5090939;28;20385;-73
2023/01/13 02:03:08;;;;;;;1.73;1.00;;;11.40;93.90;;;;;;5093037;28;20386;-73
2023/01/13 02:05:34;;;;;;;2.40;0.80;;;11.40;94.30;;;;;;5113777;28;20380;-74
2023/01/13 02:08:01;;;;;;;2.80;0.80;;;11.40;94.50;;;;;;5107986;28;20956;-73
2023/01/13 02:10:28;;;;;;;1.10;0.70;;;11.40;94.40;;;;;;5093520;28;20374;-73
2023/01/13 02:12:57;;;;;;;1.02;0.80;;;11.40;94.40;;;;;;5092882;28;20389;-73
2023/01/13 02:15:29;;;;;;;1.58;0.60;;;11.40;94.50;;;;;;5111284;28;20910;-73
2023/01/13 02:18:04;;;;;;;1.85;0.80;;;11.40;94.60;;;;;;5113649;28;20526;-73
2023/01/13 02:20:56;;;;;;;2.08;0.85;;;11.40;95.50;;;;;;5098569;28;20390;-73
2023/01/13 02:26:17;;;;;;;2.30;0.50;;;11.30;96.70;;;;;;5093024;28;20744;-73
2023/01/13 02:31:43;;;;;;;0.90;0.50;;;11.30;98.10;;;;;;5072806;28;20445;-73
2023/01/13 02:34:17;;;;;;;0.90;0.60;;;11.20;1.00;;;;;;5072041;28;20497;-72
2023/01/13 02:36:56;;;;;;;2.08;0.60;;;11.20;1.00;;;;;;5091299;28;20824;-73
2023/01/13 02:39:24;;;;;;;2.00;0.60;;;11.20;1.00;;;;;;5092967;28;20760;-72
2023/01/13 02:44:46;;;;;;;1.70;0.70;;;11.20;1.00;;;;;;5093846;28;20372;-72
2023/01/13 02:47:22;;;;;;;1.20;0.50;;;11.20;99.90;;;;;;5112867;28;20457;-73
2023/01/13 02:49:53;;;;;;;2.10;0.50;;;11.20;99.90;;;;;;5113154;28;20373;-73
2023/01/13 02:52:28;;;;;;;0.60;0.40;;;11.20;99.90;;;;;;5094503;28;20469;-73
2023/01/13 02:54:59;;;;;;;1.27;0.50;;;11.20;1.00;;;;;;5092494;28;20753;-73
2023/01/13 02:57:26;;;;;;;1.97;0.60;;;11.10;18.90;;;;;;5092525;28;20413;-73
2023/01/13 02:59:54;;;;;;;0.80;0.47;;;11.10;99.90;;;;;;5100631;28;20455;-73
2023/01/13 03:02:21;;;;;;;1.75;0.50;;;11.10;99.90;;;;;;5112921;28;20878;-73
2023/01/13 03:04:55;;;;;;;3.00;0.40;;;11.10;1.00;;;;;;5093901;28;20422;-73
2023/01/13 03:07:26;;;;;;;0.68;0.40;;;11.10;99.90;;;;;;5091964;28;20416;-73
2023/01/13 03:10:10;;;;;;;1.30;0.50;;;11.10;1.00;;;;;;5072328;28;20391;-73
2023/01/13 03:12:57;;;;;;;1.00;0.60;;;11.00;99.90;;;;;;5070945;28;20379;-73
2023/01/13 03:15:53;;;;;;;1.30;0.50;;;11.00;1.00;;;;;;5072286;28;20383;-73
2023/01/13 03:18:50;;;;;;;1.60;0.60;;;11.00;1.00;;;;;;5071818;28;20723;-73
2023/01/13 03:21:30;;;;;;;1.20;0.70;;;11.00;1.00;;;;;;5106335;28;20904;-73
2023/01/13 03:24:07;;;;;;;1.30;0.50;;;10.90;93.70;;;;;;5111898;28;20491;-72
2023/01/13 03:26:47;;;;;;;1.60;0.50;;;11.00;99.90;;;;;;5112263;28;20408;-73
2023/01/13 03:29:16;;;;;;;0.85;0.50;;;10.90;99.90;;;;;;5112363;27;20484;-73
2023/01/13 03:32:04;;;;;;;2.20;0.60;;;10.90;99.90;;;;;;5092376;28;20926;-73
2023/01/13 03:34:35;;;;;;;1.55;0.50;;;10.90;99.90;;;;;;5091090;28;20748;-73
2023/01/13 03:37:04;;;;;;;0.88;0.50;;;11.00;99.90;;;;;;5091513;28;20389;-73
2023/01/13 03:39:35;;;;;;;0.70;0.40;;;11.00;99.90;;;;;;5104410;28;20396;-72
2023/01/13 03:42:06;;;;;;;1.30;0.70;;;11.00;1.00;;;;;;5112230;28;20388;-73
2023/01/13 03:44:45;;;;;;;0.90;0.50;;;11.00;99.90;;;;;;5111448;28;20411;-72
2023/01/13 03:47:17;;;;;;;1.20;0.60;;;11.00;99.90;;;;;;5111930;28;20496;-72
2023/01/13 03:50:16;;;;;;;1.90;0.50;;;11.00;99.90;;;;;;5097948;28;20394;-73
2023/01/13 03:52:47;;;;;;;0.93;0.45;;;11.00;99.90;;;;;;5091716;28;20398;-74
2023/01/13 03:55:27;;;;;;;1.00;0.60;;;10.90;99.90;;;;;;5108813;28;20470;-72
2023/01/13 03:58:13;;;;;;;0.60;0.40;;;11.00;99.90;;;;;;5111754;28;20376;-73
2023/01/13 04:00:53;;;;;;;1.70;0.45;;;11.00;99.90;;;;;;5111948;28;20889;-72
2023/01/13 04:03:49;;;;;;;1.40;0.60;;;10.90;99.90;;;;;;5110266;28;20922;-72
2023/01/13 04:06:37;;;;;;;2.00;0.40;;;10.90;99.90;;;;;;5100676;28;20388;-72
2023/01/13 04:09:13;;;;;;;1.33;0.50;;;11.00;99.90;;;;;;5095416;28;20952;-72
2023/01/13 04:11:44;;;;;;;0.60;0.40;;;10.90;99.90;;;;;;5091061;28;20386;-72
2023/01/13 04:14:11;;;;;;;2.05;0.40;;;11.00;99.90;;;;;;5090527;28;20394;-73
2023/01/13 04:16:37;;;;;;;1.60;0.40;;;10.90;1.00;;;;;;5101039;28;20792;-72
2023/01/13 04:19:03;;;;;;;1.48;0.45;;;10.90;1.00;;;;;;5110947;28;20391;-72
2023/01/13 04:21:29;;;;;;;0.80;0.40;;;11.00;1.00;;;;;;5109994;28;20383;-74
2023/01/13 04:23:55;;;;;;;1.10;0.50;;;10.90;1.00;;;;;;5108550;28;20831;-72
2023/01/13 04:26:22;;;;;;;0.90;0.50;;;10.90;1.00;;;;;;5099711;28;20450;-72
2023/01/13 04:28:47;;;;;;;0.60;0.40;;;10.90;1.00;;;;;;5090783;28;20919;-73
2023/01/13 04:31:13;;;;;;;1.00;0.40;;;10.80;53.30;;;;;;5090893;28;20374;-73
2023/01/13 04:33:39;;;;;;;1.23;0.30;;;10.80;91.00;;;;;;5090318;28;20469;-72
2023/01/13 04:36:04;;;;;;;1.10;0.50;;;10.80;99.90;;;;;;5098844;28;20758;-72
2023/01/13 04:38:30;;;;;;;0.50;0.40;;;10.80;99.90;;;;;;5103590;28;20404;-73
2023/01/13 04:40:55;;;;;;;1.00;0.50;;;10.80;99.90;;;;;;5090983;28;20543;-73
2023/01/13 04:43:21;;;;;;;0.60;0.40;;;10.70;99.90;;;;;;5090231;28;20458;-73
2023/01/13 04:45:46;;;;;;;1.00;0.30;;;10.70;99.90;;;;;;5091045;28;20380;-72
2023/01/13 04:48:12;;;;;;;0.60;0.30;;;10.80;99.90;;;;;;5094312;28;20720;-73
2023/01/13 04:50:38;;;;;;;0.50;0.40;;;10.70;99.90;;;;;;5111265;28;20426;-72
2023/01/13 04:53:04;;;;;;;0.70;0.40;;;10.70;99.90;;;;;;5107646;28;20942;-73
2023/01/13 04:55:30;;;;;;;0.70;0.40;;;10.70;99.90;;;;;;5090864;28;20936;-72
2023/01/13 04:58:01;;;;;;;0.90;0.30;;;10.70;99.90;;;;;;5089435;28;20519;-72
2023/01/13 05:00:26;;;;;;;0.50;0.30;;;10.70;99.90;;;;;;5090719;28;20381;-73
2023/01/13 05:02:52;;;;;;;3.30;0.40;;;10.60;99.90;;;;;;5089974;28;20394;-73
2023/01/13 05:05:18;;;;;;;0.60;0.40;;;10.60;99.90;;;;;;5111126;28;20829;-74
2023/01/13 05:07:44;;;;;;;2.20;0.43;;;10.60;1.00;;;;;;5101079;28;20469;-73
2023/01/13 05:10:10;;;;;;;0.80;0.50;;;10.60;1.00;;;;;;5070596;28;20754;-73
2023/01/13 05:18:04;;;;;;;1.23;0.50;;;10.60;1.00;;;;;;5086395;28;20419;-74
2023/01/13 05:20:29;;;;;;;0.97;0.40;;;10.60;1.00;;;;;;5111205;28;20451;-74
2023/01/13 05:25:42;;;;;;;1.20;0.40;;;10.60;1.00;;;;;;5108695;28;20398;-73
2023/01/13 05:28:08;;;;;;;1.30;0.30;;;10.60;1.00;;;;;;5110486;28;20408;-73
2023/01/13 05:30:42;;;;;;;0.90;0.30;;;10.60;1.00;;;;;;5110988;28;20858;-73
2023/01/13 05:33:13;;;;;;;0.68;0.50;;;10.60;1.00;;;;;;5110321;28;20380;-73
2023/01/13 05:35:40;;;;;;;0.80;0.30;;;10.60;1.00;;;;;;5097005;28;20751;-72
2023/01/13 05:38:06;;;;;;;0.60;0.30;;;10.60;1.00;;;;;;5093941;28;20397;-74
2023/01/13 05:43:20;;;;;;;0.88;0.30;;;10.60;1.00;;;;;;5094753;28;20437;-73
2023/01/13 05:45:47;;;;;;;0.43;0.22;;;10.60;1.00;;;;;;5110941;28;20416;-73
2023/01/13 05:48:13;;;;;;;1.40;0.40;;;10.50;1.00;;;;;;5114500;28;20427;-72
2023/01/13 05:50:39;;;;;;;1.30;0.40;;;10.50;1.00;;;;;;5114710;28;20844;-73
2023/01/13 05:53:05;;;;;;;0.90;0.40;;;10.50;1.00;;;;;;5103593;28;20433;-73
2023/01/13 05:55:30;;;;;;;0.88;0.30;;;10.40;1.00;;;;;;5094365;28;20374;-73
2023/01/13 05:57:56;;;;;;;1.10;0.30;;;10.50;1.00;;;;;;5094086;28;20435;-72
2023/01/13 06:00:22;;;;;;;1.40;0.30;;;10.50;1.00;;;;;;5099549;28;20392;-72
2023/01/13 06:02:48;;;;;;;1.00;0.30;;;10.50;1.00;;;;;;5099717;28;20394;-73
2023/01/13 06:05:13;;;;;;;0.70;0.30;;;10.50;1.00;;;;;;5103199;28;20428;-72
2023/01/13 06:07:39;;;;;;;0.60;0.30;;;10.50;1.00;;;;;;5107755;28;20726;-73
2023/01/13 06:10:05;;;;;;;0.70;0.40;;;10.50;1.00;;;;;;5092984;28;20906;-73
2023/01/13 06:12:30;;;;;;;0.80;0.40;;;10.50;1.00;;;;;;5093514;28;20461;-71
2023/01/13 06:14:56;;;;;;;1.13;0.60;;;10.60;1.00;;;;;;5093754;28;20378;-72
2023/01/13 06:17:21;;;;;;;0.70;0.40;;;10.60;1.00;;;;;;5093205;28;20378;-72
2023/01/13 06:19:47;;;;;;;0.50;0.30;;;10.50;1.00;;;;;;5102699;28;20393;-72
2023/01/13 06:22:17;;;;;;;1.37;0.50;;;10.60;1.00;;;;;;5093711;28;20386;-72
2023/01/13 06:24:45;;;;;;;0.50;0.30;;;10.60;1.00;;;;;;5091626;28;20872;-72
2023/01/13 06:27:11;;;;;;;1.10;0.40;;;10.60;1.00;;;;;;5094808;28;20412;-72
2023/01/13 06:29:37;;;;;;;0.70;0.40;;;10.60;1.00;;;;;;5113554;28;20391;-72
2023/01/13 06:32:06;;;;;;;0.60;0.30;;;10.60;1.00;;;;;;5113864;27;20380;-72
2023/01/13 06:34:34;;;;;;;0.70;0.40;;;10.60;1.00;;;;;;5112973;28;20372;-72
2023/01/13 06:37:00;;;;;;;0.80;0.30;;;10.60;1.00;;;;;;5113254;28;20464;-72
2023/01/13 06:39:29;;;;;;;0.70;0.40;;;10.60;1.00;;;;;;5090877;28;20445;-72
2023/01/13 06:44:40;;;;;;;1.10;0.30;;;10.60;1.00;;;;;;5112645;28;20444;-72
2023/01/13 06:47:06;;;;;;;0.70;0.40;;;10.60;1.00;;;;;;5112535;28;20400;-72
2023/01/13 06:49:32;;;;;;;0.63;0.35;;;10.60;1.00;;;;;;5107370;28;20389;-73
2023/01/13 06:51:58;;;;;;;1.10;0.30;;;10.50;1.00;;;;;;5113061;28;20400;-73
2023/01/13 06:54:23;;;;;;;0.50;0.40;;;10.50;1.00;;;;;;5112483;28;20381;-73
2023/01/13 06:56:49;;;;;;;0.50;0.30;;;10.50;1.00;;;;;;5113365;28;20376;-72
2023/01/13 06:59:14;;;;;;;1.40;0.40;;;10.60;1.30;;;;;;5112887;28;20392;-73
2023/01/13 07:01:40;;;;;;;0.47;0.35;;;10.60;1.00;;;;;;5092967;28;20418;-73
2023/01/13 07:04:05;;;;;;;0.45;0.30;;;10.60;3.20;;;;;;5092196;28;20389;-73
2023/01/13 07:06:31;;;;;;;0.50;0.40;;;10.60;1.00;;;;;;5112947;28;20393;-74
2023/01/13 07:08:56;;;;;;;0.50;0.40;;;10.60;1.00;;;;;;5098364;28;20386;-73
2023/01/13 07:11:22;;;;;;;0.50;0.30;;;10.60;1.00;;;;;;5092555;28;20896;-73
2023/01/13 07:16:32;;;;;;;1.30;0.38;;;10.60;1.00;;;;;;5092698;28;20394;-73
2023/01/13 07:18:57;;;;;;;0.60;0.30;;;10.70;1.00;;;;;;5092541;28;20381;-73
2023/01/13 07:21:23;;;;;;;1.20;0.30;;;10.70;1.00;;;;;;5091392;28;20378;-73
2023/01/13 07:23:48;;;;;;;0.43;0.30;;;10.70;1.00;;;;;;5110406;28;20388;-73
2023/01/13 07:26:15;;;;;;;0.90;0.30;;;10.70;1.00;;;;;;5111294;28;20395;-73
2023/01/13 07:28:41;;;;;;;0.65;0.38;;;10.70;1.00;;;;;;5112901;28;20397;-72
2023/01/13 07:31:19;;;;;;;0.60;0.40;;;10.70;1.00;;;;;;5092410;28;20374;-73
2023/01/13 07:33:45;;;;;;;1.60;0.50;;;10.70;1.00;;;;;;5085897;28;20393;-72
2023/01/13 07:36:11;;;;;;;1.20;0.30;;;10.70;1.00;;;;;;5091922;28;20906;-72
2023/01/13 07:38:38;;;;;;;0.60;0.30;;;10.70;1.00;;;;;;5128674;22;20424;-73
2023/01/13 07:43:50;;;;;;;0.98;0.40;;;10.70;13.20;;;;;;5110011;27;20433;-72
2023/01/13 07:46:16;;;;;;;0.60;0.30;;;10.70;50.80;;;;;;5111952;28;20389;-72
2023/01/13 07:48:42;;;;;;;1.05;0.40;;;10.60;90.10;;;;;;5106817;28;20419;-73
2023/01/13 07:51:09;;;;;;;0.50;0.30;;;10.60;97.10;;;;;;5097060;28;20382;-73
2023/01/13 07:53:35;;;;;;;0.90;0.30;;;10.60;99.90;;;;;;5090465;28;20382;-73
2023/01/13 07:56:02;;;;;;;1.17;0.60;;;10.50;99.90;;;;;;5090260;28;20402;-72
2023/01/13 07:58:28;;;;;;;1.30;0.50;;;10.30;99.90;;;;;;5086415;28;20754;-73
2023/01/13 08:00:54;;;;;;;1.67;0.47;;;10.10;99.90;;;;;;5071315;28;20463;-72
2023/01/13 08:03:21;;;;;;;0.60;0.40;;;10.00;99.90;;;;;;5076209;28;20475;-75
2023/01/13 08:05:47;;;;;;;1.20;0.60;;;9.70;99.90;;;;;;5067561;28;20400;-75
2023/01/13 08:08:12;;;;;;;1.45;0.60;;;9.60;99.90;;;;;;5079215;28;20402;-74
2023/01/13 08:10:38;;;;;;;0.57;0.30;;;9.50;99.90;;;;;;5091444;28;20761;-73
2023/01/13 08:13:18;;;;;;;1.67;0.60;;;9.30;99.90;;;;;;5090728;28;20381;-73
2023/01/13 08:15:46;;;;;;;3.15;0.57;;;9.30;99.90;;;;;;5068386;28;20746;-73
2023/01/13 08:18:12;;;;;;;0.90;0.60;;;9.30;99.90;;;;;;5071017;28;20437;-73
2023/01/13 08:20:38;;;;;;;1.00;0.50;;;9.30;99.90;;;;;;5070937;28;20379;-73
2023/01/13 08:23:03;;;;;;;1.70;0.40;;;9.30;99.90;;;;;;5071392;28;20395;-73
2023/01/13 08:25:29;;;;;;;0.80;0.40;;;9.30;99.90;;;;;;5070964;28;20948;-73
2023/01/13 08:27:55;;;;;;;0.50;0.40;;;9.30;99.90;;;;;;5070836;28;20403;-72
2023/01/13 08:30:21;;;;;;;0.90;0.40;;;9.40;99.90;;;;;;5053048;28;20388;-71
2023/01/13 08:32:48;;;;;;;0.73;0.40;;;9.40;99.90;;;;;;5078321;28;20880;-74
2023/01/13 08:35:14;;;;;;;1.27;0.47;;;9.40;99.90;;;;;;5072814;28;20447;-73
2023/01/13 08:37:40;;;;;;;0.80;0.50;;;9.40;99.90;;;;;;5090785;28;20397;-74
2023/01/13 08:40:07;;;;;;;0.60;0.40;;;9.40;99.90;;;;;;5087016;28;20464;-73
2023/01/13 08:42:33;;;;;;;0.60;0.40;;;9.50;99.90;;;;;;5068273;28;20376;-73
2023/01/13 08:44:58;;;;;;;0.70;0.50;;;9.50;99.90;;;;;;5070222;28;20387;-73
2023/01/13 08:47:26;;;;;;;1.33;0.50;;;9.60;99.90;;;;;;5070476;28;20427;-74
2023/01/13 08:49:52;;;;;;;1.35;0.70;;;9.60;99.90;;;;;;5071159;28;20387;-73
2023/01/13 08:52:17;;;;;;;0.60;0.50;;;9.70;99.90;;;;;;5090498;28;20394;-74
2023/01/13 08:54:43;;;;;;;1.80;0.40;;;9.80;99.90;;;;;;5084892;28;20904;-73
2023/01/13 08:57:08;;;;;;;0.70;0.43;;;9.80;99.90;;;;;;5070481;28;20419;-74
2023/01/13 08:59:34;;;;;;;0.90;0.40;;;9.90;99.90;;;;;;5070598;28;20419;-74
2023/01/13 09:02:00;;;;;;;0.70;0.40;;;10.00;99.90;;;;;;5070489;28;20384;-74
2023/01/13 09:04:27;;;;;;;0.90;0.50;;;10.10;99.90;;;;;;5052886;28;20445;-75
2023/01/13 09:06:53;;;;;;;1.10;0.70;;;10.10;99.90;;;;;;5072307;28;20385;-74
2023/01/13 09:09:20;;;;;;;0.75;0.60;;;10.10;99.90;;;;;;5085554;28;20807;-74
2023/01/13 09:14:35;;;;;;;1.20;0.70;;;10.30;99.90;;;;;;5069871;28;20367;-73
2023/01/13 09:17:01;;;;;;;0.60;0.40;;;10.30;99.90;;;;;;5052399;28;20395;-74
2023/01/13 09:19:27;;;;;;;0.60;0.43;;;10.40;99.90;;;;;;5052547;28;20392;-74
2023/01/13 09:21:54;;;;;;;0.57;0.40;;;10.40;99.90;;;;;;5079280;28;20813;-75
2023/01/13 09:24:20;;;;;;;1.50;0.50;;;10.40;99.90;;;;;;5106762;28;20368;-75
2023/01/13 09:26:46;;;;;;;0.70;0.40;;;10.40;99.90;;;;;;5090156;28;20374;-74
2023/01/13 09:29:11;;;;;;;4.60;0.80;;;10.40;99.90;;;;;;5090326;28;20386;-75
2023/01/13 09:31:37;;;;;;;1.40;0.60;;;10.40;99.90;;;;;;5090314;28;20389;-75
2023/01/13 09:36:49;;;;;;;0.60;0.50;;;10.50;99.90;;;;;;5069915;28;20382;-75
2023/01/13 09:39:16;;;;;;;0.60;0.50;;;10.40;99.90;;;;;;5070201;28;20411;-75
2023/01/13 09:44:47;;;;;;;1.30;0.70;;;10.50;99.90;;;;;;5067558;28;20773;-74
2023/01/13 09:47:26;;;;;;;0.80;0.50;;;10.40;99.90;;;;;;5069851;28;20435;-72
2023/01/13 09:49:57;;;;;;;0.60;0.50;;;10.40;99.90;;;;;;5070018;28;20386;-73
2023/01/13 09:52:24;;;;;;;1.00;0.50;;;10.40;99.90;;;;;;5051344;28;20449;-74
2023/01/13 09:55:12;;;;;;;0.50;0.40;;;10.30;99.90;;;;;;5084120;28;20382;-75
2023/01/13 09:57:39;;;;;;;1.90;0.40;;;10.30;99.90;;;;;;5083470;28;20396;-75
2023/01/13 10:00:20;;;;;;;0.50;0.40;;;10.30;99.90;;;;;;5085699;28;20378;-75
2023/01/13 10:03:09;;;;;;;0.82;0.40;;;10.30;99.90;;;;;;5072723;28;20388;-75
2023/01/13 10:05:41;;;;;;;1.00;0.60;;;10.30;99.90;;;;;;5062219;28;20402;-74
2023/01/13 10:08:12;;;;;;;0.90;0.50;;;10.20;99.90;;;;;;5082877;28;20930;-74
2023/01/13 10:10:49;;;;;;;0.50;0.40;;;10.20;99.90;;;;;;5068945;28;20463;-74
2023/01/13 10:13:29;;;;;;;1.08;0.50;;;10.20;99.90;;;;;;5090018;28;20959;-73
2023/01/13 10:16:18;;;;;;;0.70;0.60;;;10.10;99.90;;;;;;5093161;28;20405;-74
2023/01/13 10:19:10;;;;;;;1.10;0.60;;;10.10;99.90;;;;;;5074974;28;20388;-74
2023/01/13 10:22:10;;;;;;;1.00;0.70;;;10.20;99.90;;;;;;5073320;28;20480;-74
2023/01/13 10:24:41;;;;;;;0.95;0.70;;;10.30;99.90;;;;;;5075331;28;20376;-73
2023/01/13 10:27:25;;;;;;;1.27;0.50;;;10.30;99.90;;;;;;5078623;28;20880;-74
2023/01/13 10:29:50;;;;;;;1.25;0.60;;;10.50;86.30;;;;;;5095772;28;20396;-72
2023/01/13 10:32:16;;;;;;;2.00;0.60;;;10.50;55.40;;;;;;5094554;28;20373;-72
2023/01/13 10:34:49;;;;;;;0.80;0.50;;;10.50;87.50;;;;;;5092685;28;20394;-72
2023/01/13 10:37:21;;;;;;;2.33;0.93;;;10.60;53.40;;;;;;5087437;28;20494;-72
2023/01/13 10:39:48;;;;;;;0.90;0.50;;;10.60;19.60;;;;;;5073043;28;20384;-72
2023/01/13 10:42:13;;;;;;;1.40;0.60;;;10.60;12.10;;;;;;5072740;28;20873;-72
2023/01/13 10:44:59;;;;;;;1.10;0.50;;;10.60;12.80;;;;;;5072160;28;20460;-72
2023/01/13 10:47:28;;;;;;;1.00;0.60;;;10.70;43.00;;;;;;5060162;28;20413;-72
2023/01/13 10:50:20;;;;;;;0.75;0.50;;;10.70;99.90;;;;;;5078196;28;20388;-71
2023/01/13 10:53:00;;;;;;;2.10;0.50;;;10.80;1.00;;;;;;5071914;28;20526;-71
2023/01/13 10:55:35;;;;;;;1.08;0.50;;;10.90;1.00;;;;;;5072848;28;20827;-72
2023/01/13 10:58:13;;;;;;;0.60;0.50;;;11.00;99.90;;;;;;5072501;28;20443;-71
2023/01/13 11:00:38;;;;;;;1.50;0.52;;;11.10;99.90;;;;;;5073090;28;20754;-72
2023/01/13 11:03:23;;;;;;;0.88;0.50;;;11.40;99.90;;;;;;5071722;28;20388;-72
2023/01/13 11:05:49;;;;;;;0.77;0.50;;;11.70;99.90;;;;;;5072574;28;20383;-71
2023/01/13 11:08:23;;;;;;;0.70;0.60;;;11.50;99.90;;;;;;5058531;28;20444;-71
2023/01/13 11:10:52;;;;;;;1.00;0.40;;;11.50;99.90;;;;;;5072387;28;20464;-72
2023/01/13 11:13:32;;;;;;;0.65;0.60;;;11.40;99.90;;;;;;5071429;28;20371;-72
2023/01/13 11:16:14;;;;;;;0.90;0.60;;;11.50;99.90;;;;;;5072451;28;20387;-72
2023/01/13 11:19:01;;;;;;;1.45;0.57;;;11.60;99.90;;;;;;5087032;28;20534;-71
2023/01/13 11:21:41;;;;;;;0.90;0.80;;;11.50;99.90;;;;;;5092477;28;20449;-73
2023/01/13 11:24:35;;;;;;;1.25;0.63;;;11.70;99.90;;;;;;5078201;28;20396;-72
2023/01/13 11:27:07;;;;;;;1.20;0.50;;;12.10;99.90;;;;;;5071858;28;20403;-72
2023/01/13 11:30:08;;;;;;;1.60;0.50;;;12.70;99.90;;;;;;5054067;28;20399;-71
2023/01/13 11:32:56;;;;;;;1.70;0.60;;;13.10;96.40;;;;;;5053646;28;20386;-72
2023/01/13 11:35:22;;;;;;;2.10;0.65;;;13.30;97.20;;;;;;5089798;28;20482;-72
2023/01/13 11:38:00;;;;;;;0.65;0.52;;;13.30;95.50;;;;;;5072192;28;20755;-74
2023/01/13 11:40:45;;;;;;;0.70;0.38;;;13.00;98.60;;;;;;5072138;28;20919;-74
2023/01/13 11:43:40;;;;;;;1.60;0.77;;;12.90;99.90;;;;;;5070895;28;20519;-75
2023/01/13 11:46:08;;;;;;;1.05;0.60;;;12.30;99.90;;;;;;5074139;28;20409;-74
2023/01/13 11:48:40;;;;;;;0.70;0.50;;;11.90;1.00;;;;;;5078007;28;20407;-73
2023/01/13 11:51:11;;;;;;;1.40;0.45;;;11.70;99.90;;;;;;5072204;28;20780;-72
2023/01/13 11:54:07;;;;;;;0.90;0.60;;;11.60;1.00;;;;;;5070656;28;20375;-72
2023/01/13 11:56:58;;;;;;;1.02;0.60;;;11.30;1.00;;;;;;5071404;28;20861;-73
2023/01/13 11:59:36;;;;;;;2.83;0.70;;;11.30;99.90;;;;;;5090599;28;20394;-74
2023/01/13 12:02:23;;;;;;;0.90;0.50;;;11.40;99.90;;;;;;5091652;28;20393;-73
2023/01/13 12:05:34;;;;;;;0.90;0.40;;;11.30;99.90;;;;;;5091140;28;20868;-73
2023/01/13 12:08:09;;;;;;;1.88;0.80;;;11.20;99.90;;;;;;5072576;28;20418;-73
2023/01/13 12:10:43;;;;;;;0.87;0.70;;;11.40;99.90;;;;;;5091528;28;20436;-73
2023/01/13 12:13:27;;;;;;;2.00;0.70;;;11.30;99.90;;;;;;5090779;28;20366;-73
2023/01/13 12:16:19;;;;;;;1.55;0.70;;;11.40;99.90;;;;;;5087517;28;20386;-73
2023/01/13 12:19:10;;;;;;;1.30;0.50;;;11.30;99.90;;;;;;5071029;28;20380;-73
2023/01/13 12:21:39;;;;;;;1.00;0.60;;;11.30;99.90;;;;;;5072323;28;20379;-73
2023/01/13 12:24:29;;;;;;;1.75;1.10;;;11.90;99.90;;;;;;5070673;28;20384;-73
2023/01/13 12:27:00;;;;;;;2.22;1.00;;;13.00;94.10;;;;;;5080913;28;20425;-73
2023/01/13 12:29:36;;;;;;;1.75;0.80;;;13.20;90.50;;;;;;5082202;28;20474;-74
2023/01/13 12:32:06;;;;;;;0.80;0.50;;;13.20;90.30;;;;;;5070808;28;20478;-73
2023/01/13 12:34:51;;;;;;;1.40;0.77;;;12.80;89.40;;;;;;5052153;28;20902;-74
2023/01/13 12:37:29;;;;;;;1.20;0.60;;;12.90;90.40;;;;;;5070597;28;20407;-74
2023/01/13 12:40:14;;;;;;;2.25;1.10;;;12.90;90.60;;;;;;5063659;28;20393;-74
2023/01/13 12:46:17;;;;;;;3.20;1.10;;;12.60;90.50;;;;;;5070109;28;20379;-73
2023/01/13 12:48:53;;;;;;;2.03;0.80;;;11.60;94.30;;;;;;5070374;28;20428;-73
2023/01/13 12:51:24;;;;;;;1.10;0.60;;;11.40;95.80;;;;;;5070533;28;20802;-73
2023/01/13 12:53:50;;;;;;;1.15;0.63;;;11.40;96.30;;;;;;5082664;28;20397;-73
2023/01/13 12:56:33;;;;;;;2.00;0.80;;;11.10;99.00;;;;;;5090748;28;20752;-73
2023/01/13 12:59:23;;;;;;;3.30;0.90;;;10.90;1.00;;;;;;5075566;28;20392;-73
2023/01/13 13:01:51;;;;;;;3.47;0.73;;;10.70;99.90;;;;;;5070378;28;20411;-73
2023/01/13 13:04:19;;;;;;;2.53;0.90;;;10.60;1.00;;;;;;5069593;28;20380;-73
2023/01/13 13:07:02;;;;;;;1.85;0.80;;;10.40;1.00;;;;;;5070302;28;20391;-73
2023/01/13 13:09:32;;;;;;;2.10;1.00;;;10.10;13.50;;;;;;5070298;28;20489;-73
2023/01/13 13:15:17;;;;;;;2.35;0.80;;;9.70;99.90;;;;;;5070356;28;20390;-75
2023/01/13 13:17:44;;;;;;;2.65;0.70;;;9.00;99.90;;;;;;5070214;28;20460;-74
2023/01/13 13:20:49;;;;;;;2.42;1.30;;;8.70;99.90;;;;;;5070394;28;20387;-74
2023/01/13 13:23:35;;;;;;;2.90;0.90;;;8.60;99.90;;;;;;5087618;28;20421;-72
2023/01/13 13:26:38;;;;;;;2.95;1.30;;;8.60;99.90;;;;;;5090591;28;20374;-72
2023/01/13 13:29:29;;;;;;;1.80;1.30;;;8.60;99.90;;;;;;5072242;28;20458;-72
2023/01/13 13:32:25;;;;;;;2.92;1.30;;;8.70;99.90;;;;;;5076731;28;20445;-72
2023/01/13 13:34:58;;;;;;;2.00;1.30;;;8.70;99.90;;;;;;5069926;28;20514;-73
2023/01/13 13:49:11;;;;;;;2.67;1.00;;;9.10;99.90;;;;;;5090134;28;20818;-73
2023/01/13 13:51:43;;;;;;;1.80;0.60;;;9.10;99.90;;;;;;5090031;28;20435;-73
2023/01/13 13:54:20;;;;;;;1.80;0.90;;;9.20;99.90;;;;;;5071681;28;20457;-72
2023/01/13 13:56:46;;;;;;;2.80;1.00;;;9.10;99.90;;;;;;5073448;28;20761;-72
2023/01/13 13:59:15;;;;;;;1.50;0.50;;;9.00;99.90;;;;;;5093928;28;20382;-72
2023/01/13 14:01:44;;;;;;;0.80;0.50;;;8.90;99.90;;;;;;5093762;28;20378;-71
2023/01/13 14:04:24;;;;;;;2.00;0.50;;;9.00;99.90;;;;;;5074766;28;20866;-72
2023/01/13 14:07:21;;;;;;;1.42;0.70;;;9.10;99.90;;;;;;5093922;28;20874;-71
2023/01/13 14:09:53;;;;;;;1.40;0.60;;;9.20;99.90;;;;;;5091653;28;20400;-72
2023/01/13 14:12:25;;;;;;;1.85;0.60;;;9.10;99.90;;;;;;5102346;28;20863;-73